Aérodrome :
LOGIN :

S'inscrire | Disclaimer

   EN    FR    IT 

 










Légende :    VFR   VFR Marginal   IFR   IFR Intensif   IFR Très Intensif
Visi : 
Plafond : 
>= 8 km
>= 3000ft
5 à 8 km
1000 à 3000 ft
1500m à 5 km
500 à 1000 ft
800 à 1500m
200 à 500 ft
< 800m
< 200 ft
Symboles :   Orages  Brouillard  Fortes neiges  Fortes précipitations  Vent > 20 kt
SIGMETs :   Divers  Orages  Givrage  Turbulence  Onde Orograph.  Cendres Volcan.







- Altitude de l'aérodrome : 287 ft
- Voir les cartes d'approche


LFRL - Lanveoc Poulmic

DERNIER METAR :
  • 230030Z AUTO 06008KT CAVOK 17/15 Q1019

METARs EXPIRÉS :
  • 230000Z AUTO 06010KT CAVOK 17/16 Q1019
  • 222330Z AUTO 04007KT CAVOK 17/16 Q1020
  • 222300Z AUTO 03008KT CAVOK 17/15 Q1020
  • 222230Z AUTO 03007KT CAVOK 17/15 Q1020 NOSIG
  • 222200Z AUTO 05008KT 020V080 CAVOK 17/15 Q1020 NOSIG

TAF TAF LFRL
Valide du 22 à 12h jusqu'au 23 à 12h UTC


221100Z 2212/2312 33005KT 9999 FEW020
PROB30
TEMPO 2303/2306 4000 BR
Pas de NOTAMs connus pour ce terrain.
1 SIGMET publié pour la FIR Brest (LFRR) :
 
Orages noyés dans la masse
LFRR SIGMET 1 VALID 222230/230230 LFPW
LFRR BREST FIR/UIR EMBD TS FCST WI N4400 W00345 - N4430 W00615 - N4515 W00545 - N4515 W00345 - N4400 W00345 TOP FL400 MOV N 25KT NC=



MET'MAP, la Météo Aéronautique d'un coup d'oeil ! - Copyright ORBIFLY Décembre 2007 - Disclaimer

ORBIFLY MET'MAP TEAM :

Programmation & Développement : Alexandra Zaïnal
Conception & Développement : Baudouin d'Aumeries
Co-Programmation & Développement : Marc-Olivier Méhu
Soutien technique & logistique : Manuel Goepfert

Contact : metmap@orbifly.com




SOURCES & CREDITS :

   NOAA